Latest Coastal Weather Observations for Ulladulla

IDN60701

Issued at 8:12 am EST Tuesday 23 April 2024 (issued every 10 minutes, with the page automatically refreshed every 10 minutes)

About coastal observations | Map of coastal stations | Coastal observations for NSW | Marine services | Other Formats
Station Details ID: 069138 Name: ULLADULLA AWS Lat: -35.36 Lon: 150.48 Height: 35.7 m
Data from the previous 72 hours. | See also: Recent months at Ulladulla
Date/Time
EST
Wind Sea
Height
m
Swell Vis
km
Cloud Weather Temp
°C
Press
MSL
hPa
Rain since
9am
mm
Dir  Spd
kts
Gust
kts
Height
m
Period
s
Dir
23/08:00am N 2 3 - - - - - - - 16.4 1023.7 0.0
23/07:30am N 5 7 - - - - - - - 15.1 1023.5 0.0
23/07:00am N 5 5 - - - - - - - 13.3 1023.0 0.0
23/06:30am N 5 6 - - - - - - - 12.2 1022.9 0.0
23/06:00am N 4 5 - - - - - - - 12.2 1022.8 0.0
23/05:30am N 4 5 - - - - - - - 12.4 1022.9 0.0
23/05:00am NNW 4 4 - - - - - - - 13.1 1022.8 0.0
23/04:30am N 4 5 - - - - - - - 12.7 1022.8 0.0
23/04:00am CALM 0 3 - - - - - - - 13.2 1022.9 0.0
23/03:30am CALM 0 0 - - - - - - - 13.6 1023.0 0.0
23/03:00am CALM 0 0 - - - - - - - 13.9 1023.1 0.0
23/02:30am CALM 0 0 - - - - - - - 13.1 1023.3 0.0
23/02:00am W 2 2 - - - - - - - 13.1 1023.4 0.0
23/01:30am CALM 0 0 - - - - - - - 13.2 1023.7 0.0
23/01:00am SW 1 2 - - - - - - - 13.1 1023.8 0.0
23/12:30am SW 2 3 - - - - - - - 13.2 1024.0 0.0
23/12:00am SW 3 3 - - - - - - - 13.3 1024.1 0.0
 
Date/Time
EST
Wind Sea
Height
m
Swell Vis
km
Cloud Weather Temp
°C
Press
MSL
hPa
Rain since
9am
mm
Dir  Spd
kts
Gust
kts
Height
m
Period
s
Dir
22/11:30pm WSW 1 2 - - - - - - - 13.9 1024.3 0.0
22/11:00pm W 1 3 - - - - - - - 14.1 1024.4 0.0
22/10:30pm N 3 4 - - - - - - - 15.0 1024.4 0.0
22/10:00pm CALM 0 0 - - - - - - - 14.7 1024.8 0.0
22/09:30pm N 1 1 - - - - - - - 14.4 1025.1 0.0
22/09:00pm CALM 0 0 - - - - - - - 15.1 1025.2 0.0
22/08:30pm CALM 0 0 - - - - - - - 15.3 1025.3 0.0
22/08:00pm CALM 0 0 - - - - - - - 15.6 1025.3 0.0
22/07:30pm CALM 0 1 - - - - - - - 16.3 1025.3 0.0
22/07:00pm N 2 3 - - - - - - - 17.4 1025.3 0.0
22/06:30pm N 5 8 - - - - - - - 18.2 1025.1 0.0
22/06:00pm N 4 7 - - - - - - - 18.5 1025.1 0.0
22/05:30pm NE 5 8 - - - - - - - 18.5 1025.1 0.0
22/05:00pm NE 5 12 - - - - - - - 18.6 1025.0 0.0
22/04:30pm NE 7 12 - - - - - - - 18.9 1025.0 0.0
22/04:00pm NE 9 13 - - - - - - - 19.2 1024.9 0.0
22/03:30pm NE 9 13 - - - - - - - 19.3 1025.0 0.0
22/03:00pm NE 9 13 - - - - - - - 19.3 1025.3 0.0
22/02:30pm NE 8 12 - - - - - - - 19.3 1025.3 0.0
22/02:00pm NE 8 12 - - - - - - - 19.4 1025.5 0.0
22/01:30pm NE 6 10 - - - - - - - 19.6 1025.8 0.0
22/01:00pm ENE 6 10 - - - - - - - 19.9 1026.2 0.0
22/12:30pm NE 7 10 - - - - - - - 19.5 1026.7 0.0
22/12:00pm NE 8 11 - - - - - - - 18.9 1027.2 0.0
22/11:30am NE 6 9 - - - - - - - 19.2 1027.7 0.0
22/11:00am NE 6 8 - - - - - - - 18.8 1028.1 0.0
22/10:30am NE 5 9 - - - - - - - 18.9 1028.5 0.0
22/10:00am N 6 8 - - - - - - - 18.5 1028.5 0.0
22/09:30am N 5 8 - - - - - - - 18.4 1028.8 0.0
22/09:00am N 3 5 - - - - - - - 18.2 1029.0 0.0
22/08:30am N 2 3 - - - - - - - 17.8 1029.1 0.0
22/08:00am NNW 2 3 - - - - - - - 16.6 1029.1 0.0
22/07:30am NNW 2 3 - - - - - - - 15.3 1029.0 0.0
22/07:00am NNW 3 3 - - - - - - - 13.4 1028.5 0.0
22/06:30am NNW 2 3 - - - - - - - 12.9 1028.4 0.0
22/06:00am NW 3 4 - - - - - - - 13.0 1028.2 0.0
22/05:30am NW 4 5 - - - - - - - 13.1 1028.1 0.0
22/05:00am NW 3 4 - - - - - - - 12.3 1028.2 0.0
22/04:30am NW 2 3 - - - - - - - 12.5 1028.3 0.0
22/04:00am WNW 3 4 - - - - - - - 13.2 1028.4 0.0
22/03:30am W 3 4 - - - - - - - 13.5 1028.4 0.0
22/03:00am W 4 6 - - - - - - - 13.6 1028.6 0.0
22/02:30am W 4 5 - - - - - - - 13.8 1028.9 0.0
22/02:00am W 4 5 - - - - - - - 13.6 1029.1 0.0
22/01:30am W 4 5 - - - - - - - 13.5 1029.2 0.0
22/01:00am W 4 5 - - - - - - - 13.9 1029.3 0.0
22/12:30am W 4 5 - - - - - - - 13.9 1029.4 0.0
22/12:00am WNW 3 4 - - - - - - - 14.2 1029.3 0.0
 
Date/Time
EST
Wind Sea
Height
m
Swell Vis
km
Cloud Weather Temp
°C
Press
MSL
hPa
Rain since
9am
mm
Dir  Spd
kts
Gust
kts
Height
m
Period
s
Dir
21/11:30pm W 3 5 - - - - - - - 14.3 1029.3 0.0
21/11:00pm W 4 5 - - - - - - - 14.4 1029.5 0.0
21/10:30pm W 3 4 - - - - - - - 15.0 1029.5 0.0
21/10:00pm W 3 4 - - - - - - - 15.3 1029.5 0.0
21/09:30pm W 3 4 - - - - - - - 14.9 1029.5 0.0
21/09:00pm W 3 3 - - - - - - - 14.3 1029.3 0.0
21/08:30pm W 2 3 - - - - - - - 14.0 1029.2 0.0
21/08:00pm WSW 3 3 - - - - - - - 13.9 1029.2 0.0
21/07:30pm NW 1 3 - - - - - - - 14.3 1029.2 0.0
21/07:00pm CALM 0 0 - - - - - - - 14.8 1028.7 0.0
21/06:30pm CALM 0 0 - - - - - - - 15.1 1028.4 0.0
21/06:00pm NE 1 2 - - - - - - - 15.8 1028.1 0.0
21/05:30pm CALM 0 2 - - - - - - - 16.2 1027.8 0.0
21/05:00pm SE 1 2 - - - - - - - 17.2 1027.5 0.0
21/04:30pm ESE 2 3 - - - - - - - 17.8 1027.3 0.0
21/04:00pm ESE 3 5 - - - - - - - 18.3 1027.1 0.0
21/03:30pm ESE 3 5 - - - - - - - 18.4 1027.1 0.0
21/03:00pm E 3 6 - - - - - - - 19.0 1027.1 0.0
21/02:30pm ESE 3 6 - - - - - - - 19.1 1027.1 0.0
21/02:00pm ESE 4 7 - - - - - - - 19.1 1027.2 0.0
21/01:30pm SSE 4 7 - - - - - - - 19.0 1027.3 0.0
21/01:00pm SSE 4 6 - - - - - - - 19.0 1027.5 0.0
21/12:30pm SSE 4 7 - - - - - - - 19.0 1027.9 0.0
21/12:00pm SSE 5 7 - - - - - - - 18.7 1028.6 0.0
21/11:30am SSE 5 7 - - - - - - - 18.7 1029.2 0.0
21/11:00am S 4 7 - - - - - - - 18.6 1029.5 0.0
21/10:30am S 5 7 - - - - - - - 18.1 1029.7 0.0
21/10:00am SSW 5 7 - - - - - - - 18.4 1029.8 0.0
21/09:30am SSW 5 8 - - - - - - - 17.8 1030.0 0.0
21/09:00am SSW 6 9 - - - - - - - 17.4 1030.3 0.0
21/08:30am SW 6 9 - - - - - - - 16.9 1030.3 0.0
21/08:00am SW 5 8 - - - - - - - 16.3 1030.1 0.0
21/07:30am WSW 5 7 - - - - - - - 14.9 1029.9 0.0
21/07:00am SW 6 9 - - - - - - - 14.9 1029.6 0.0
21/06:30am SW 5 8 - - - - - - - 14.9 1029.4 0.0
21/06:00am WSW 5 9 - - - - - - - 14.9 1029.2 0.0
21/05:30am WSW 5 8 - - - - - - - 15.0 1029.1 0.0
21/05:00am WSW 6 9 - - - - - - - 15.0 1028.9 0.0
21/04:30am WSW 6 10 - - - - - - - 15.2 1028.6 0.0
21/04:00am WSW 7 10 - - - - - - - 15.0 1028.6 0.0
21/03:30am WSW 4 7 - - - - - - - 14.9 1028.3 0.0
21/03:00am WSW 5 7 - - - - - - - 15.0 1028.5 0.0
21/02:30am WSW 4 8 - - - - - - - 14.9 1028.7 0.0
21/02:00am WSW 5 7 - - - - - - - 14.9 1028.8 0.0
21/01:30am WSW 5 7 - - - - - - - 14.9 1028.9 0.0
21/01:00am WSW 5 10 - - - - - - - 14.6 1029.1 0.0
21/12:30am WSW 4 7 - - - - - - - 14.5 1029.0 0.0
21/12:00am WSW 4 5 - - - - - - - 14.5 1029.0 0.0
 
Date/Time
EST
Wind Sea
Height
m
Swell Vis
km
Cloud Weather Temp
°C
Press
MSL
hPa
Rain since
9am
mm
Dir  Spd
kts
Gust
kts
Height
m
Period
s
Dir
20/11:30pm WSW 4 8 - - - - - - - 14.7 1029.0 0.0
20/11:00pm WSW 4 7 - - - - - - - 15.3 1029.0 0.0
20/10:30pm SW 5 12 - - - - - - - 16.3 1029.0 0.0
20/10:00pm SSW 10 14 - - - - - - - 17.3 1028.8 0.0
20/09:30pm SW 5 11 - - - - - - - 15.9 1028.9 0.0
20/09:00pm SSW 13 17 - - - - - - - 17.5 1028.7 0.0
20/08:30pm SSW 15 19 - - - - - - - 17.7 1028.5 0.0
20/08:00pm SSW 16 20 - - - - - - - 17.9 1028.5 0.0
20/07:30pm S 15 20 - - - - - - - 17.9 1028.7 0.0
20/07:00pm S 14 20 - - - - - - - 17.8 1028.7 0.0
20/06:30pm S 16 22 - - - - - - - 17.8 1028.4 0.0
20/06:00pm SSW 17 21 - - - - - - - 17.6 1028.2 0.0
20/05:30pm S 15 22 - - - - - - - 17.6 1027.9 0.0
20/05:00pm SSW 17 23 - - - - - - - 17.8 1027.7 0.0
20/04:30pm SSW 19 25 - - - - - - - 17.8 1027.4 0.0
20/04:00pm SSW 20 25 - - - - - - - 17.7 1027.3 0.0
20/03:30pm SSW 17 25 - - - - - - - 17.7 1027.2 0.0
20/03:00pm SSW 19 27 - - - - - - - 18.2 1026.9 0.0
20/02:32pm SSW 17 27 - - - - - - - 18.1 1026.8 0.0
20/02:30pm SSW 16 23 - - - - - - - 18.2 1026.8 0.0
20/02:00pm SSW 18 26 - - - - - - - 18.1 1026.8 0.0
20/01:30pm SSW 19 26 - - - - - - - 18.0 1026.6 0.0
20/01:02pm SSW 17 28 - - - - - - - 18.0 1026.5 0.0
20/01:00pm SSW 16 25 - - - - - - - 18.0 1026.6 0.0
20/12:48pm SSW 18 28 - - - - - - - 18.1 1026.6 0.0
20/12:30pm SSW 18 26 - - - - - - - 18.1 1026.7 0.0
20/12:03pm SSW 16 27 - - - - - - - 18.7 1026.8 0.0
20/12:00pm SSW 16 25 - - - - - - - 18.5 1026.8 0.0
20/11:30am SSW 16 25 - - - - - - - 18.5 1027.0 0.0
20/11:06am SSW 16 28 - - - - - - - 18.1 1026.9 0.0
20/11:00am SSW 15 25 - - - - - - - 18.2 1026.9 0.0
20/10:30am SSW 15 28 - - - - - - - 18.3 1026.9 0.0
20/10:00am SW 13 20 - - - - - - - 16.9 1026.8 0.0
20/09:30am SW 12 18 - - - - - - - 16.0 1026.7 0.0
20/09:00am SW 13 20 - - - - - - - 15.4 1026.5 3.4
20/08:30am SW 11 19 - - - - - - - 15.7 1026.2 3.4

Other formats

Comma delimited format used in spreadsheet applications
http://www.bom.gov.au/fwo/IDN60701/IDN60701.94938.axf

JavaScript Object Notation format (JSON) in row-major order
http://www.bom.gov.au/fwo/IDN60701/IDN60701.94938.json

Data quality

Most of these data are generated automatically and are frequently updated. Quality checks on data are not normally performed. It is possible for incorrect values to appear. Refer to information at About Latest Weather Observations and please check the disclaimer before using these data.